createdAt,value
2023-02-28T00:00:54.560Z,-0.82
2023-02-28T00:03:21.247Z,-0.73
2023-02-28T00:05:47.980Z,-0.83
2023-02-28T00:08:15.250Z,-0.93
2023-02-28T00:10:41.950Z,-0.93
2023-02-28T00:13:08.687Z,-0.87
2023-02-28T00:15:35.672Z,-0.90
2023-02-28T00:18:03.078Z,-0.90
2023-02-28T00:20:30.621Z,-0.99
2023-02-28T00:22:57.329Z,-1.02
2023-02-28T00:25:26.239Z,-1.02
2023-02-28T00:27:53.637Z,-1.11
2023-02-28T00:30:23.545Z,-1.09
2023-02-28T00:32:51.499Z,-1.12
2023-02-28T00:35:18.807Z,-1.12
2023-02-28T00:37:45.550Z,-1.24
2023-02-28T00:40:13.206Z,-1.16
2023-02-28T00:42:40.723Z,-1.19
2023-02-28T00:45:08.791Z,-1.13
2023-02-28T00:47:35.692Z,-1.24
2023-02-28T00:50:02.715Z,-1.29
2023-02-28T00:52:29.535Z,-1.35
2023-02-28T00:54:56.665Z,-1.25
2023-02-28T00:57:23.653Z,-1.26
2023-02-28T00:59:50.489Z,-1.37
2023-02-28T01:02:17.543Z,-1.38
2023-02-28T01:04:44.279Z,-1.31
2023-02-28T01:07:10.938Z,-1.24
2023-02-28T01:09:37.694Z,-1.34
2023-02-28T01:12:04.793Z,-1.38
2023-02-28T01:14:31.462Z,-1.35
2023-02-28T01:16:58.103Z,-1.28
2023-02-28T01:19:24.823Z,-1.35
2023-02-28T01:21:51.385Z,-1.28
2023-02-28T01:24:18.036Z,-1.25
2023-02-28T01:26:44.724Z,-1.19
2023-02-28T01:29:11.418Z,-1.23
2023-02-28T01:31:38.142Z,-1.26
2023-02-28T01:34:04.989Z,-1.31
2023-02-28T01:36:31.641Z,-1.48
2023-02-28T01:38:58.282Z,-1.49
2023-02-28T01:41:29.109Z,-1.42
2023-02-28T01:44:06.729Z,-1.42
2023-02-28T01:46:35.720Z,-1.51
2023-02-28T01:49:18.028Z,-1.50
2023-02-28T01:51:55.798Z,-1.52
2023-02-28T01:54:26.980Z,-1.49
2023-02-28T01:57:06.669Z,-1.35
2023-02-28T01:59:47.409Z,-1.31
2023-02-28T02:02:15.934Z,-1.43
2023-02-28T02:04:59.578Z,-1.52
2023-02-28T02:07:27.171Z,-1.52
2023-02-28T02:10:25.515Z,-1.48
2023-02-28T02:13:12.607Z,-1.56
2023-02-28T02:16:24.179Z,-1.68
2023-02-28T02:18:59.007Z,-1.68
2023-02-28T02:56:30.231Z,-1.84
2023-02-28T02:59:02.955Z,-1.79
2023-02-28T03:01:32.610Z,-1.77
2023-02-28T03:04:05.474Z,-1.89
2023-02-28T03:06:32.290Z,-1.84
2023-02-28T03:08:58.938Z,-1.86
2023-02-28T03:11:25.651Z,-1.84
2023-02-28T03:14:28.310Z,-1.83
2023-02-28T03:17:20.827Z,-1.82
2023-02-28T03:20:33.216Z,-1.86
2023-02-28T03:23:35.154Z,-1.88
2023-02-28T03:26:12.920Z,-1.87
2023-02-28T03:29:02.633Z,-1.90
2023-02-28T03:31:38.224Z,-1.91
2023-02-28T03:34:27.539Z,-1.94
2023-02-28T03:36:58.559Z,-2.02
2023-02-28T03:39:32.170Z,-1.97
2023-02-28T03:42:02.733Z,-1.95
2023-02-28T03:44:34.940Z,-1.93
2023-02-28T03:47:50.956Z,-1.99
2023-02-28T03:50:28.222Z,-1.92
2023-02-28T03:53:02.568Z,-1.81
2023-02-28T03:55:40.271Z,-1.94
2023-02-28T03:58:16.879Z,-1.66
2023-02-28T04:00:53.913Z,-1.71
2023-02-28T04:03:20.734Z,-1.90
2023-02-28T04:05:55.490Z,-1.97
2023-02-28T04:08:23.644Z,-1.91
2023-02-28T04:10:59.347Z,-1.91
2023-02-28T04:13:25.993Z,-2.02
2023-02-28T04:15:52.630Z,-2.01
2023-02-28T04:18:19.301Z,-2.06
2023-02-28T04:20:45.865Z,-1.98
2023-02-28T04:23:12.499Z,-1.95
2023-02-28T04:25:41.379Z,-2.04
2023-02-28T04:28:08.191Z,-2.03
2023-02-28T04:30:34.824Z,-1.99
2023-02-28T04:33:02.029Z,-2.07
2023-02-28T04:35:28.619Z,-2.08
2023-02-28T04:37:55.312Z,-2.17
2023-02-28T04:40:21.985Z,-2.14
2023-02-28T04:42:48.551Z,-2.21
2023-02-28T04:45:15.100Z,-2.21
2023-02-28T04:47:41.781Z,-2.19
2023-02-28T04:50:09.672Z,-2.24
2023-02-28T04:52:36.321Z,-2.24
2023-02-28T04:55:03.023Z,-2.21
2023-02-28T04:57:31.020Z,-2.18
2023-02-28T04:59:57.641Z,-2.18
2023-02-28T05:02:24.879Z,-2.18
2023-02-28T05:04:51.588Z,-2.20
2023-02-28T05:07:18.304Z,-2.27
2023-02-28T05:09:44.963Z,-2.32
2023-02-28T05:12:11.684Z,-2.28
2023-02-28T05:14:38.331Z,-2.33
2023-02-28T05:17:04.988Z,-2.33
2023-02-28T05:19:31.654Z,-2.34
2023-02-28T05:21:58.465Z,-2.42
2023-02-28T05:24:25.398Z,-2.44
2023-02-28T05:26:54.145Z,-2.42
2023-02-28T05:29:21.053Z,-2.41
2023-02-28T05:31:48.242Z,-2.42
2023-02-28T05:34:16.605Z,-2.40
2023-02-28T05:36:43.863Z,-2.39
2023-02-28T05:39:14.251Z,-2.40
2023-02-28T05:41:44.687Z,-2.50
2023-02-28T05:44:11.998Z,-2.54
2023-02-28T05:46:39.475Z,-2.25
2023-02-28T05:49:06.326Z,-1.98
2023-02-28T05:51:33.173Z,-1.97
2023-02-28T05:54:01.534Z,-2.20
2023-02-28T05:56:28.823Z,-2.28
2023-02-28T05:58:55.526Z,-2.29
2023-02-28T06:01:37.552Z,-2.32
2023-02-28T06:04:06.159Z,-2.34
2023-02-28T06:06:36.915Z,-2.42
2023-02-28T06:09:06.625Z,-2.54
2023-02-28T06:11:33.918Z,-2.44
2023-02-28T06:14:01.888Z,-2.50
2023-02-28T06:16:30.334Z,-2.45
2023-02-28T06:18:59.453Z,-2.52
2023-02-28T06:21:26.104Z,-2.49
2023-02-28T06:23:52.733Z,-2.46
2023-02-28T06:26:20.295Z,-2.46
2023-02-28T06:28:47.862Z,-2.36
2023-02-28T06:31:16.238Z,-2.36
2023-02-28T06:33:44.247Z,-2.42
2023-02-28T06:36:13.507Z,-2.45
2023-02-28T06:38:42.001Z,-2.34
2023-02-28T06:41:09.522Z,-2.22
2023-02-28T06:43:40.468Z,-2.15
2023-02-28T06:46:09.168Z,-2.08
2023-02-28T06:48:36.552Z,-2.08
2023-02-28T06:51:15.729Z,-2.10
2023-02-28T06:53:42.465Z,-2.06
2023-02-28T06:56:11.777Z,-2.06
2023-02-28T06:58:39.993Z,-2.21
2023-02-28T07:01:07.763Z,-2.04
2023-02-28T07:03:36.057Z,-1.94
2023-02-28T07:06:03.781Z,-1.91
2023-02-28T07:08:30.798Z,-2.00
2023-02-28T07:10:57.927Z,-2.12
2023-02-28T07:13:25.509Z,-2.03
2023-02-28T07:16:04.142Z,-1.99
2023-02-28T07:18:31.459Z,-1.96
2023-02-28T07:20:58.533Z,-1.85
2023-02-28T07:23:25.431Z,-1.88
2023-02-28T07:25:53.042Z,-1.87
2023-02-28T07:28:19.712Z,-1.78
2023-02-28T07:30:46.558Z,-1.73
2023-02-28T07:33:13.216Z,-1.77
2023-02-28T07:35:39.856Z,-1.70
2023-02-28T07:38:08.412Z,-1.65
2023-02-28T07:40:35.804Z,-1.73
2023-02-28T07:43:03.041Z,-1.72
2023-02-28T07:45:30.774Z,-1.67
2023-02-28T07:47:57.476Z,-1.64
2023-02-28T07:50:26.141Z,-1.71
2023-02-28T07:52:53.624Z,-1.62
2023-02-28T07:55:20.266Z,-1.61
2023-02-28T07:57:46.870Z,-1.62
2023-02-28T08:00:14.627Z,-1.64
2023-02-28T08:02:41.607Z,-1.53
2023-02-28T08:05:08.617Z,-1.40
2023-02-28T08:07:35.262Z,-1.35
2023-02-28T08:10:02.190Z,-1.20
2023-02-28T08:12:29.011Z,-1.12
2023-02-28T08:14:55.655Z,-1.14
2023-02-28T08:17:22.298Z,-1.10
2023-02-28T08:19:48.929Z,-1.03
2023-02-28T08:22:15.489Z,-1.07
2023-02-28T08:24:43.770Z,-1.07
2023-02-28T08:27:11.261Z,-0.99
2023-02-28T08:29:39.260Z,-0.81
2023-02-28T08:32:14.570Z,-0.97
2023-02-28T08:34:48.131Z,-0.92
2023-02-28T08:37:14.932Z,-0.81
2023-02-28T08:39:41.767Z,-0.86
2023-02-28T08:42:08.400Z,-0.69
2023-02-28T08:44:35.213Z,-0.61
2023-02-28T08:47:01.866Z,-0.47
2023-02-28T08:49:28.501Z,-0.44
2023-02-28T08:51:56.396Z,-0.30
2023-02-28T08:54:23.947Z,-0.30
2023-02-28T08:56:50.827Z,-0.19
2023-02-28T08:59:17.447Z,-0.14
2023-02-28T09:01:44.636Z,-0.10
2023-02-28T09:04:13.277Z,-0.13
2023-02-28T09:06:42.328Z,-0.04
2023-02-28T09:09:10.476Z,0.02
2023-02-28T09:11:37.608Z,0.10
2023-02-28T09:14:04.707Z,0.13
2023-02-28T09:16:33.842Z,0.16
2023-02-28T09:19:00.999Z,0.21
2023-02-28T09:21:29.034Z,0.13
2023-02-28T09:23:56.020Z,0.12
2023-02-28T09:26:32.577Z,0.16
2023-02-28T09:29:05.927Z,0.22
2023-02-28T09:31:32.612Z,0.24
2023-02-28T09:34:00.322Z,0.36
2023-02-28T09:36:43.347Z,0.40
2023-02-28T09:39:12.867Z,0.39
2023-02-28T09:41:48.551Z,0.42
2023-02-28T09:44:30.279Z,0.56
2023-02-28T09:47:06.291Z,0.64
2023-02-28T09:49:39.977Z,0.68
2023-02-28T09:52:13.168Z,0.60
2023-02-28T09:54:41.268Z,0.65
2023-02-28T09:57:36.492Z,0.72
2023-02-28T10:00:20.187Z,0.90
2023-02-28T10:03:26.075Z,0.93
2023-02-28T10:05:57.517Z,1.04
2023-02-28T10:08:31.189Z,1.13
2023-02-28T10:11:08.525Z,1.10
2023-02-28T10:14:02.400Z,1.19
2023-02-28T10:16:57.557Z,1.18
2023-02-28T10:19:51.673Z,1.19
2023-02-28T10:22:37.280Z,1.24
2023-02-28T10:25:18.414Z,1.21
2023-02-28T10:27:45.115Z,1.33
2023-02-28T10:30:14.108Z,1.44
2023-02-28T10:32:43.519Z,1.56
2023-02-28T10:35:30.324Z,1.64
2023-02-28T10:38:00.165Z,1.55
2023-02-28T10:40:36.546Z,1.59
2023-02-28T10:43:18.845Z,1.76
2023-02-28T10:45:58.570Z,1.79
2023-02-28T10:48:34.682Z,1.76
2023-02-28T10:51:02.643Z,1.81
2023-02-28T10:53:57.633Z,1.92
2023-02-28T10:56:26.370Z,1.95
2023-02-28T10:59:04.443Z,1.96
2023-02-28T11:01:53.866Z,2.11
2023-02-28T11:04:41.514Z,2.14
2023-02-28T11:07:37.319Z,2.21
2023-02-28T11:10:22.072Z,2.23
2023-02-28T11:12:52.853Z,2.27
2023-02-28T11:15:33.446Z,2.23
2023-02-28T11:18:21.947Z,2.32
2023-02-28T11:20:52.143Z,2.46
2023-02-28T11:23:21.153Z,2.55
2023-02-28T11:25:55.438Z,2.65
2023-02-28T11:28:32.313Z,2.70
2023-02-28T11:31:20.424Z,2.73
2023-02-28T11:33:57.358Z,2.78
2023-02-28T11:36:29.889Z,2.92
2023-02-28T11:38:57.776Z,2.95
2023-02-28T11:42:03.168Z,2.95
2023-02-28T11:45:37.980Z,3.13
2023-02-28T11:48:28.609Z,3.07
2023-02-28T11:51:16.355Z,3.19
2023-02-28T11:53:53.220Z,3.21
2023-02-28T11:56:48.538Z,3.27
2023-02-28T11:59:50.402Z,3.23
2023-02-28T12:02:57.583Z,3.34
2023-02-28T12:05:50.631Z,3.41
2023-02-28T12:08:45.174Z,3.43
2023-02-28T12:11:39.994Z,3.53
2023-02-28T12:15:00.980Z,3.59
2023-02-28T12:18:04.567Z,3.61
2023-02-28T12:20:50.966Z,3.71
2023-02-28T12:23:43.534Z,3.80
2023-02-28T12:26:23.450Z,3.86
2023-02-28T12:28:54.343Z,3.86
2023-02-28T12:31:36.300Z,3.95
2023-02-28T12:34:10.793Z,3.80
2023-02-28T12:36:38.613Z,3.84
2023-02-28T12:39:23.922Z,4.03
2023-02-28T12:42:09.755Z,4.16
2023-02-28T12:44:43.975Z,4.09
2023-02-28T12:47:15.502Z,4.15
2023-02-28T12:49:59.314Z,4.20
2023-02-28T12:53:04.485Z,4.06
2023-02-28T12:55:57.253Z,4.00
2023-02-28T12:58:43.369Z,4.10
2023-02-28T13:01:35.255Z,4.20
2023-02-28T13:04:47.214Z,4.22
2023-02-28T13:07:57.394Z,4.21
2023-02-28T13:10:24.799Z,4.27
2023-02-28T13:12:54.156Z,4.24
2023-02-28T13:15:26.049Z,4.31
2023-02-28T13:17:55.728Z,4.26
2023-02-28T13:20:25.819Z,4.29
2023-02-28T13:22:55.721Z,4.28
2023-02-28T13:25:54.943Z,4.14
2023-02-28T13:29:13.836Z,4.01
2023-02-28T13:32:23.506Z,4.08
2023-02-28T13:35:14.901Z,3.80
2023-02-28T13:37:46.153Z,3.79
2023-02-28T13:40:38.804Z,3.83
2023-02-28T13:43:09.914Z,3.91
2023-02-28T13:45:39.460Z,4.00
2023-02-28T13:48:26.334Z,4.06
2023-02-28T13:50:53.096Z,4.08
2023-02-28T13:54:02.010Z,4.18
2023-02-28T13:56:42.641Z,4.31
2023-02-28T13:59:51.523Z,4.22
2023-02-28T14:03:00.069Z,4.19
2023-02-28T14:05:28.034Z,4.16
2023-02-28T14:07:57.925Z,4.23
2023-02-28T14:10:37.812Z,4.25
2023-02-28T14:13:31.270Z,4.20
2023-02-28T14:16:01.167Z,4.13
2023-02-28T14:18:34.592Z,4.10
2023-02-28T14:21:29.866Z,4.16
2023-02-28T14:27:59.111Z,4.22
2023-02-28T14:30:56.685Z,4.13
2023-02-28T14:33:48.764Z,4.12
2023-02-28T14:36:27.389Z,4.12
2023-02-28T14:38:58.306Z,4.14
2023-02-28T14:41:38.034Z,4.09
2023-02-28T14:44:14.070Z,4.09
2023-02-28T14:46:42.643Z,4.10
2023-02-28T14:49:30.016Z,4.10
2023-02-28T14:52:34.118Z,4.08
2023-02-28T14:55:08.177Z,4.13
2023-02-28T14:57:40.316Z,4.18
2023-02-28T15:00:30.718Z,4.15
2023-02-28T15:02:59.412Z,4.15
2023-02-28T15:05:34.685Z,4.16
2023-02-28T15:08:14.819Z,4.16
2023-02-28T15:10:51.441Z,4.21
2023-02-28T15:13:20.122Z,4.21
2023-02-28T15:16:02.273Z,4.20
2023-02-28T15:19:07.049Z,4.13
2023-02-28T15:21:37.633Z,4.12
2023-02-28T15:24:45.348Z,4.08
2023-02-28T15:27:17.474Z,4.04
2023-02-28T15:29:50.237Z,3.93
2023-02-28T15:32:40.886Z,3.97
2023-02-28T15:35:32.036Z,3.97
2023-02-28T15:38:03.317Z,3.88
2023-02-28T15:40:38.801Z,3.84
2023-02-28T15:43:23.940Z,3.81
2023-02-28T15:45:54.139Z,3.76
2023-02-28T15:48:53.966Z,3.67
2023-02-28T15:51:25.462Z,3.59
2023-02-28T15:54:03.852Z,3.68
2023-02-28T15:56:32.892Z,3.57
2023-02-28T15:59:14.597Z,3.51
2023-02-28T16:01:41.261Z,3.42
2023-02-28T16:04:19.345Z,3.45
2023-02-28T16:06:47.698Z,3.35
2023-02-28T16:09:16.902Z,3.31
2023-02-28T16:11:47.928Z,3.31
2023-02-28T16:14:28.478Z,3.36
2023-02-28T16:17:03.508Z,3.39
2023-02-28T16:19:30.171Z,3.43
2023-02-28T16:21:56.710Z,3.35
2023-02-28T16:24:23.433Z,3.30
2023-02-28T16:26:53.340Z,3.32
2023-02-28T16:29:31.052Z,3.41
2023-02-28T16:31:57.880Z,3.33
2023-02-28T16:34:25.466Z,3.23
2023-02-28T16:36:52.584Z,3.23
2023-02-28T16:39:21.701Z,3.23
2023-02-28T16:41:50.980Z,3.21
2023-02-28T16:44:34.247Z,3.19
2023-02-28T16:47:02.388Z,3.17
2023-02-28T16:49:29.230Z,3.21
2023-02-28T16:51:56.027Z,3.22
2023-02-28T16:54:22.747Z,3.11
2023-02-28T16:56:49.857Z,3.12
2023-02-28T16:59:22.563Z,3.09
2023-02-28T17:01:50.146Z,3.05
2023-02-28T17:04:16.917Z,3.00
2023-02-28T17:06:43.681Z,2.96
2023-02-28T17:09:24.628Z,2.96
2023-02-28T17:11:57.787Z,3.02
2023-02-28T17:14:24.539Z,2.86
2023-02-28T17:16:51.405Z,2.94
2023-02-28T17:19:19.331Z,2.91
2023-02-28T17:21:46.291Z,2.89
2023-02-28T17:24:16.477Z,2.85
2023-02-28T17:26:46.334Z,2.86
2023-02-28T17:29:31.178Z,2.81
2023-02-28T17:32:00.752Z,2.71
2023-02-28T17:34:29.672Z,2.72
2023-02-28T17:36:56.316Z,2.69
2023-02-28T17:39:25.958Z,2.61
2023-02-28T17:41:53.359Z,2.62
2023-02-28T17:44:20.928Z,2.56
2023-02-28T17:46:48.405Z,2.64
2023-02-28T17:49:15.121Z,2.56
2023-02-28T17:51:42.068Z,2.53
2023-02-28T17:54:08.697Z,2.42
2023-02-28T17:56:35.477Z,2.50
2023-02-28T17:59:02.125Z,2.66
2023-02-28T18:01:29.155Z,2.58
2023-02-28T18:03:56.785Z,2.43
2023-02-28T18:06:26.694Z,2.51
2023-02-28T18:08:53.768Z,2.58
2023-02-28T18:11:22.251Z,2.55
2023-02-28T18:13:50.873Z,2.47
2023-02-28T18:16:18.437Z,2.45
2023-02-28T18:18:45.775Z,2.53
2023-02-28T18:21:14.994Z,2.49
2023-02-28T18:23:47.910Z,2.41
2023-02-28T18:26:16.582Z,2.45
2023-02-28T18:28:44.648Z,2.41
2023-02-28T18:31:16.857Z,2.41
2023-02-28T18:33:44.959Z,2.47
2023-02-28T18:36:11.532Z,2.35
2023-02-28T18:38:38.173Z,2.40
2023-02-28T18:41:07.225Z,2.46
2023-02-28T18:43:38.588Z,2.33
2023-02-28T18:46:07.261Z,2.32
2023-02-28T18:48:34.082Z,2.38
2023-02-28T18:51:09.634Z,2.31
2023-02-28T18:53:37.400Z,2.28
2023-02-28T18:56:05.521Z,2.21
2023-02-28T18:58:35.899Z,2.23
2023-02-28T19:01:04.652Z,2.14
2023-02-28T19:03:31.294Z,2.14
2023-02-28T19:05:59.971Z,2.11
2023-02-28T19:08:27.258Z,2.15
2023-02-28T19:10:53.857Z,2.24
2023-02-28T19:13:21.094Z,2.17
2023-02-28T19:15:48.550Z,2.12
2023-02-28T19:18:15.579Z,2.01
2023-02-28T19:20:42.218Z,2.03
2023-02-28T19:23:11.712Z,2.10
2023-02-28T19:25:41.876Z,2.17
2023-02-28T19:28:08.552Z,2.16
2023-02-28T19:30:35.197Z,2.13
2023-02-28T19:33:01.833Z,2.14
2023-02-28T19:35:28.511Z,2.15
2023-02-28T19:37:55.190Z,2.08
2023-02-28T19:40:21.808Z,2.03
2023-02-28T19:42:48.409Z,1.97
2023-02-28T19:45:15.050Z,1.95
2023-02-28T19:47:41.969Z,1.89
2023-02-28T19:50:09.416Z,1.80
2023-02-28T19:52:36.075Z,1.75
2023-02-28T19:55:02.767Z,1.73
2023-02-28T19:57:29.391Z,1.60
2023-02-28T19:59:55.952Z,1.52
2023-02-28T20:02:23.007Z,1.52
2023-02-28T20:04:51.013Z,1.40
2023-02-28T20:07:20.302Z,1.38
2023-02-28T20:09:48.074Z,1.35
2023-02-28T20:12:24.132Z,1.31
2023-02-28T20:14:52.381Z,1.27
2023-02-28T20:17:19.319Z,1.26
2023-02-28T20:19:46.029Z,1.24
2023-02-28T20:22:12.699Z,1.05
2023-02-28T20:24:39.472Z,1.04
2023-02-28T20:27:06.198Z,1.01
2023-02-28T20:29:34.099Z,1.05
2023-02-28T20:32:01.087Z,0.97
2023-02-28T20:34:27.784Z,0.89
2023-02-28T20:36:56.541Z,0.89
2023-02-28T20:39:23.860Z,0.90
2023-02-28T20:41:50.635Z,0.89
2023-02-28T20:44:17.668Z,0.72
2023-02-28T20:46:44.368Z,0.77
2023-02-28T20:49:11.149Z,0.82
2023-02-28T20:51:42.243Z,0.72
2023-02-28T20:54:11.269Z,0.70
2023-02-28T20:56:38.439Z,0.64
2023-02-28T20:59:05.647Z,0.64
2023-02-28T21:01:32.691Z,0.52
2023-02-28T21:04:02.194Z,0.48
2023-02-28T21:06:32.538Z,0.52
2023-02-28T21:08:59.619Z,0.47
2023-02-28T21:11:29.157Z,0.41
2023-02-28T21:13:58.309Z,0.52
2023-02-28T21:16:27.241Z,0.63
2023-02-28T21:18:54.202Z,0.55
2023-02-28T21:21:24.449Z,0.59
2023-02-28T21:23:52.146Z,0.62
2023-02-28T21:26:21.058Z,0.44
2023-02-28T21:28:51.609Z,0.46
2023-02-28T21:31:20.263Z,0.53
2023-02-28T21:33:47.540Z,0.36
2023-02-28T21:36:19.903Z,0.40
2023-02-28T21:38:48.352Z,0.52
2023-02-28T21:41:20.900Z,0.50
2023-02-28T21:43:47.872Z,0.44
2023-02-28T21:46:20.544Z,0.42
2023-02-28T21:48:50.854Z,0.41
2023-02-28T21:51:26.120Z,0.45
2023-02-28T21:53:54.752Z,0.41
2023-02-28T21:56:31.801Z,0.40
2023-02-28T21:59:02.356Z,0.37
2023-02-28T22:01:38.426Z,0.34
2023-02-28T22:04:07.902Z,0.38
2023-02-28T22:06:38.582Z,0.34
2023-02-28T22:09:07.960Z,0.28
2023-02-28T22:11:35.854Z,0.30
2023-02-28T22:14:02.657Z,0.28
2023-02-28T22:16:40.754Z,0.25
2023-02-28T22:19:15.422Z,0.27
2023-02-28T22:21:42.178Z,0.27
2023-02-28T22:24:10.188Z,0.30
2023-02-28T22:26:36.964Z,0.23
2023-02-28T22:29:04.580Z,0.26
2023-02-28T22:31:33.666Z,0.23
2023-02-28T22:34:02.874Z,0.14
2023-02-28T22:36:30.405Z,0.10
2023-02-28T22:38:58.340Z,0.08
2023-02-28T22:41:26.595Z,0.07
2023-02-28T22:43:55.836Z,0.01
2023-02-28T22:46:24.013Z,-0.06
2023-02-28T22:48:51.115Z,-0.09
2023-02-28T22:51:20.851Z,-0.05
2023-02-28T22:53:49.058Z,-0.10
2023-02-28T22:56:17.213Z,-0.15
2023-02-28T22:58:45.001Z,-0.16
2023-02-28T23:01:16.861Z,-0.22
2023-02-28T23:03:44.267Z,-0.16
2023-02-28T23:06:43.562Z,-0.13
2023-02-28T23:09:18.258Z,-0.12
2023-02-28T23:11:47.863Z,-0.16
2023-02-28T23:14:16.323Z,-0.17
2023-02-28T23:16:49.948Z,-0.13
2023-02-28T23:19:23.203Z,-0.27
2023-02-28T23:21:50.620Z,-0.25
2023-02-28T23:24:21.072Z,-0.30
2023-02-28T23:26:50.493Z,-0.24
2023-02-28T23:29:21.822Z,-0.25
2023-02-28T23:31:49.212Z,-0.19
2023-02-28T23:34:18.554Z,-0.20
2023-02-28T23:36:46.287Z,-0.26
2023-02-28T23:39:16.361Z,-0.32
2023-02-28T23:41:43.084Z,-0.40
2023-02-28T23:44:13.690Z,-0.41
2023-02-28T23:46:40.476Z,-0.39
2023-02-28T23:49:07.117Z,-0.36
2023-02-28T23:51:33.957Z,-0.29
2023-02-28T23:54:02.952Z,-0.33
2023-02-28T23:56:30.758Z,-0.44
2023-02-28T23:58:58.259Z,-0.44
